createdAt,value
2022-11-09T00:02:06.030Z,14.25
2022-11-09T00:05:08.354Z,14.30
2022-11-09T00:08:11.581Z,14.37
2022-11-09T00:11:13.330Z,14.38
2022-11-09T00:14:17.411Z,14.35
2022-11-09T00:17:19.055Z,14.33
2022-11-09T00:20:20.807Z,14.09
2022-11-09T00:23:23.303Z,13.72
2022-11-09T00:26:25.116Z,13.55
2022-11-09T00:29:29.631Z,13.35
2022-11-09T00:32:31.287Z,13.33
2022-11-09T00:35:33.100Z,13.25
2022-11-09T00:38:35.280Z,13.20
2022-11-09T00:41:36.967Z,13.15
2022-11-09T00:44:39.956Z,13.14
2022-11-09T00:47:44.653Z,13.12
2022-11-09T00:50:50.011Z,13.11
2022-11-09T00:53:54.458Z,13.01
2022-11-09T00:56:56.564Z,13.06
2022-11-09T00:59:59.514Z,13.05
2022-11-09T01:03:01.135Z,13.10
2022-11-09T01:06:03.470Z,13.10
2022-11-09T01:09:05.271Z,13.15
2022-11-09T01:12:06.958Z,13.16
2022-11-09T01:15:10.569Z,13.11
2022-11-09T01:18:12.375Z,13.13
2022-11-09T01:21:15.396Z,13.15
2022-11-09T01:24:17.037Z,13.16
2022-11-09T01:27:18.698Z,13.10
2022-11-09T01:30:21.604Z,13.15
2022-11-09T01:33:23.398Z,13.10
2022-11-09T01:36:25.370Z,13.17
2022-11-09T01:39:26.972Z,13.13
2022-11-09T01:42:29.317Z,13.15
2022-11-09T01:45:32.315Z,13.15
2022-11-09T01:48:39.949Z,13.08
2022-11-09T01:51:46.583Z,13.11
2022-11-09T01:54:52.006Z,13.11
2022-11-09T01:57:57.565Z,13.11
2022-11-09T02:01:01.046Z,13.10
2022-11-09T02:04:07.061Z,13.10
2022-11-09T02:07:08.983Z,13.06
2022-11-09T02:10:17.828Z,13.03
2022-11-09T02:13:22.582Z,13.01
2022-11-09T02:16:26.472Z,13.01
2022-11-09T02:19:28.230Z,12.97
2022-11-09T02:22:31.295Z,12.98
2022-11-09T02:25:32.909Z,13.00
2022-11-09T02:28:36.327Z,13.00
2022-11-09T02:31:42.209Z,13.03
2022-11-09T02:34:44.051Z,13.05
2022-11-09T02:37:49.687Z,13.09
2022-11-09T02:40:52.901Z,13.12
2022-11-09T02:43:55.167Z,13.12
2022-11-09T02:46:56.897Z,13.12
2022-11-09T02:50:00.039Z,13.12
2022-11-09T02:53:04.061Z,13.02
2022-11-09T02:56:08.365Z,13.03
2022-11-09T02:59:10.066Z,13.07
2022-11-09T03:02:12.623Z,13.22
2022-11-09T03:05:14.808Z,13.25
2022-11-09T03:08:19.631Z,13.33
2022-11-09T03:11:22.474Z,13.36
2022-11-09T03:14:24.340Z,13.27
2022-11-09T03:17:31.956Z,13.27
2022-11-09T03:20:33.980Z,13.21
2022-11-09T03:23:38.448Z,13.20
2022-11-09T03:26:40.112Z,13.05
2022-11-09T03:29:41.890Z,13.10
2022-11-09T03:32:48.025Z,13.15
2022-11-09T03:35:52.185Z,12.97
2022-11-09T03:38:55.910Z,12.92
2022-11-09T03:41:57.732Z,13.00
2022-11-09T03:45:00.634Z,13.02
2022-11-09T03:48:02.544Z,13.08
2022-11-09T03:51:04.256Z,12.91
2022-11-09T03:54:07.315Z,12.88
2022-11-09T03:57:08.911Z,12.97
2022-11-09T04:00:14.410Z,12.94
2022-11-09T04:03:16.103Z,12.91
2022-11-09T04:06:17.761Z,12.87
2022-11-09T04:09:20.692Z,12.76
2022-11-09T04:12:22.370Z,12.81
2022-11-09T04:15:24.071Z,12.82
2022-11-09T04:18:27.064Z,12.81
2022-11-09T04:21:28.894Z,12.83
2022-11-09T04:24:31.886Z,12.81
2022-11-09T04:27:33.467Z,12.75
2022-11-09T04:30:36.346Z,12.74
2022-11-09T04:33:38.016Z,12.73
2022-11-09T04:36:39.801Z,12.73
2022-11-09T04:39:42.735Z,12.71
2022-11-09T04:42:44.329Z,12.73
2022-11-09T04:45:47.311Z,12.76
2022-11-09T04:48:48.950Z,12.80
2022-11-09T04:51:50.551Z,12.78
2022-11-09T04:54:53.475Z,12.75
2022-11-09T04:57:55.116Z,12.74
2022-11-09T05:01:02.417Z,12.71
2022-11-09T05:04:04.413Z,12.65
2022-11-09T05:07:06.140Z,12.61
2022-11-09T05:10:09.613Z,12.58
2022-11-09T05:13:12.579Z,12.55
2022-11-09T05:16:14.416Z,12.55
2022-11-09T05:19:16.142Z,12.59
2022-11-09T05:22:36.474Z,12.58
2022-11-09T05:25:39.590Z,12.59
2022-11-09T05:28:41.615Z,12.55
2022-11-09T05:31:50.877Z,12.54
2022-11-09T05:34:53.821Z,12.58
2022-11-09T05:37:55.476Z,12.56
2022-11-09T05:40:58.666Z,12.58
2022-11-09T05:44:00.289Z,12.58
2022-11-09T05:47:01.899Z,12.59
2022-11-09T05:50:04.106Z,12.56
2022-11-09T05:53:05.820Z,12.57
2022-11-09T05:56:11.072Z,12.60
2022-11-09T05:59:12.731Z,12.60
2022-11-09T06:02:14.491Z,12.64
2022-11-09T06:05:16.432Z,12.65
2022-11-09T06:08:18.048Z,12.70
2022-11-09T06:11:24.395Z,12.70
2022-11-09T06:14:26.251Z,12.74
2022-11-09T06:17:28.193Z,12.74
2022-11-09T06:20:30.272Z,12.77
2022-11-09T06:23:32.351Z,12.84
2022-11-09T06:26:35.328Z,12.83
2022-11-09T06:29:37.028Z,12.77
2022-11-09T06:32:38.820Z,12.79
2022-11-09T06:35:40.937Z,12.77
2022-11-09T06:38:42.633Z,12.80
2022-11-09T06:41:47.641Z,12.83
2022-11-09T06:44:49.474Z,12.76
2022-11-09T06:47:51.109Z,12.77
2022-11-09T06:50:52.726Z,12.77
2022-11-09T06:53:54.321Z,12.73
2022-11-09T06:56:57.485Z,12.72
2022-11-09T07:00:00.243Z,12.74
2022-11-09T07:03:02.423Z,12.80
2022-11-09T07:06:05.834Z,12.76
2022-11-09T07:09:07.569Z,12.79
2022-11-09T07:12:10.592Z,12.77
2022-11-09T07:15:12.737Z,12.74
2022-11-09T07:18:14.351Z,12.84
2022-11-09T07:21:15.999Z,12.83
2022-11-09T07:24:17.626Z,12.91
2022-11-09T07:27:24.849Z,12.91
2022-11-09T07:30:29.174Z,12.99
2022-11-09T07:33:32.656Z,13.03
2022-11-09T07:36:36.668Z,13.02
2022-11-09T07:39:38.354Z,13.11
2022-11-09T07:42:41.357Z,13.10
2022-11-09T07:45:43.116Z,13.04
2022-11-09T07:48:44.776Z,13.05
2022-11-09T07:51:46.409Z,12.99
2022-11-09T07:54:51.967Z,12.92
2022-11-09T07:57:59.879Z,12.93
2022-11-09T08:01:01.887Z,12.87
2022-11-09T08:04:04.112Z,12.96
2022-11-09T08:07:05.868Z,12.97
2022-11-09T08:10:08.242Z,12.95
2022-11-09T08:13:14.404Z,12.95
2022-11-09T08:16:16.728Z,13.00
2022-11-09T08:19:18.377Z,13.02
2022-11-09T08:22:20.023Z,12.97
2022-11-09T08:25:21.923Z,12.96
2022-11-09T08:28:24.898Z,12.99
2022-11-09T08:31:26.729Z,12.96
2022-11-09T08:34:28.438Z,12.99
2022-11-09T08:37:30.116Z,12.97
2022-11-09T08:40:33.146Z,12.97
2022-11-09T08:43:36.236Z,12.97
2022-11-09T08:46:41.258Z,13.05
2022-11-09T08:49:44.179Z,13.11
2022-11-09T08:52:45.918Z,13.11
2022-11-09T08:55:49.614Z,13.10
2022-11-09T08:58:52.795Z,13.12
2022-11-09T09:01:54.446Z,13.12
2022-11-09T09:04:56.177Z,13.19
2022-11-09T09:07:58.955Z,13.23
2022-11-09T09:11:02.026Z,13.24
2022-11-09T09:14:05.382Z,13.30
2022-11-09T09:17:07.037Z,13.30
2022-11-09T09:20:09.081Z,13.36
2022-11-09T09:23:12.549Z,13.42
2022-11-09T09:26:14.200Z,13.41
2022-11-09T09:29:17.441Z,13.37
2022-11-09T09:32:19.159Z,13.31
2022-11-09T09:35:20.933Z,13.31
2022-11-09T09:38:22.783Z,13.34
2022-11-09T09:41:35.095Z,13.39
2022-11-09T09:44:43.419Z,13.33
2022-11-09T09:47:51.307Z,13.39
2022-11-09T09:50:56.158Z,13.40
2022-11-09T09:54:05.424Z,13.44
2022-11-09T09:57:14.710Z,13.43
2022-11-09T10:00:23.567Z,13.53
2022-11-09T10:03:25.330Z,13.63
2022-11-09T10:06:49.283Z,13.71
2022-11-09T10:10:25.586Z,13.87
2022-11-09T10:13:43.229Z,13.92
2022-11-09T10:16:55.980Z,14.13
2022-11-09T10:20:11.353Z,14.24
2022-11-09T10:23:30.149Z,14.28
2022-11-09T10:26:41.225Z,14.47
2022-11-09T10:29:46.817Z,14.58
2022-11-09T10:32:52.470Z,14.61
2022-11-09T10:45:37.604Z,14.92
2022-11-09T10:49:19.649Z,15.07
2022-11-09T10:52:44.217Z,15.55
2022-11-09T10:56:20.285Z,15.40
2022-11-09T10:59:49.635Z,15.49
2022-11-09T11:03:15.086Z,15.52
2022-11-09T11:06:36.583Z,15.60
2022-11-09T11:09:58.741Z,15.39
2022-11-09T11:13:24.345Z,15.55
2022-11-09T11:16:46.147Z,15.53
2022-11-09T11:20:27.386Z,15.96
2022-11-09T11:24:13.196Z,16.13
2022-11-09T11:27:40.264Z,16.26
2022-11-09T11:31:00.988Z,15.96
2022-11-09T11:34:45.645Z,15.46
2022-11-09T11:38:14.377Z,15.29
2022-11-09T11:41:53.119Z,15.31
2022-11-09T11:45:40.155Z,15.26
2022-11-09T11:49:41.131Z,15.44
2022-11-09T11:53:21.663Z,15.47
2022-11-09T11:56:47.177Z,15.56
2022-11-09T12:00:13.187Z,15.42
2022-11-09T12:03:52.204Z,15.38
2022-11-09T12:07:26.468Z,15.35
2022-11-09T12:10:56.259Z,15.30
2022-11-09T12:14:29.918Z,15.16
2022-11-09T12:18:03.659Z,15.17
2022-11-09T12:21:32.217Z,15.09
2022-11-09T12:25:00.395Z,15.13
2022-11-09T12:28:44.991Z,15.06
2022-11-09T12:32:25.276Z,15.14
2022-11-09T12:35:51.333Z,15.12
2022-11-09T12:39:20.104Z,15.13
2022-11-09T12:42:46.541Z,15.12
2022-11-09T12:46:07.362Z,15.14
2022-11-09T12:49:36.514Z,15.07
2022-11-09T12:52:56.960Z,15.08
2022-11-09T12:56:21.950Z,15.00
2022-11-09T12:59:48.155Z,14.97
2022-11-09T13:03:19.769Z,15.01
2022-11-09T13:06:42.545Z,15.06
2022-11-09T13:10:27.205Z,15.04
2022-11-09T13:13:47.617Z,15.10
2022-11-09T13:17:41.071Z,15.05
2022-11-09T13:21:15.848Z,15.08
2022-11-09T13:24:53.164Z,15.04
2022-11-09T13:28:41.470Z,15.03
2022-11-09T13:32:33.046Z,14.97
2022-11-09T13:35:59.904Z,14.96
2022-11-09T13:39:31.963Z,14.98
2022-11-09T13:43:00.550Z,14.98
2022-11-09T13:46:26.162Z,14.99
2022-11-09T13:49:49.591Z,14.99
2022-11-09T13:53:29.398Z,14.97
2022-11-09T13:56:50.549Z,14.99
2022-11-09T14:00:19.507Z,15.01
2022-11-09T14:03:39.946Z,15.02
2022-11-09T14:07:03.778Z,14.99
2022-11-09T14:10:43.780Z,15.01
2022-11-09T14:14:17.681Z,15.01
2022-11-09T14:17:46.605Z,14.99
2022-11-09T14:21:17.524Z,14.94
2022-11-09T14:24:38.323Z,14.94
2022-11-09T14:27:58.782Z,14.93
2022-11-09T14:31:23.166Z,14.92
2022-11-09T14:34:44.728Z,14.84
2022-11-09T14:38:17.473Z,14.84
2022-11-09T14:41:38.067Z,14.80
2022-11-09T14:44:58.742Z,14.73
2022-11-09T14:48:21.231Z,14.72
2022-11-09T14:51:43.058Z,14.74
2022-11-09T14:55:04.327Z,14.69
2022-11-09T14:58:24.820Z,14.66
2022-11-09T15:01:58.023Z,14.62
2022-11-09T15:05:34.391Z,14.61
2022-11-09T15:08:58.433Z,14.61
2022-11-09T15:12:20.861Z,14.59
2022-11-09T15:15:41.077Z,14.54
2022-11-09T15:19:01.785Z,14.51
2022-11-09T15:22:44.740Z,14.51
2022-11-09T15:26:23.972Z,14.53
2022-11-09T15:29:44.574Z,14.48
2022-11-09T15:33:26.643Z,14.40
2022-11-09T15:36:54.071Z,14.37
2022-11-09T15:40:18.426Z,14.33
2022-11-09T15:43:40.838Z,14.31
2022-11-09T15:47:01.257Z,14.26
2022-11-09T15:50:23.739Z,14.23
2022-11-09T15:53:44.298Z,14.19
2022-11-09T15:57:04.674Z,14.15
2022-11-09T16:00:27.227Z,14.15
2022-11-09T16:03:47.670Z,14.08
2022-11-09T16:07:11.207Z,14.08
2022-11-09T16:10:37.208Z,14.06
2022-11-09T16:13:59.676Z,14.05
2022-11-09T16:17:21.395Z,14.00
2022-11-09T16:20:41.752Z,14.00
2022-11-09T16:24:01.762Z,13.97
2022-11-09T16:27:48.561Z,13.95
2022-11-09T16:31:03.280Z,13.95
2022-11-09T16:34:25.174Z,13.91
2022-11-09T16:37:46.652Z,13.89
2022-11-09T16:41:07.020Z,13.88
2022-11-09T16:44:33.919Z,13.85
2022-11-09T16:47:56.865Z,13.84
2022-11-09T16:51:18.396Z,13.83
2022-11-09T16:54:38.636Z,13.75
2022-11-09T16:57:59.549Z,13.76
2022-11-09T17:01:23.405Z,13.76
2022-11-09T17:04:44.094Z,13.70
2022-11-09T17:08:06.381Z,13.71
2022-11-09T17:11:26.574Z,13.68
2022-11-09T17:14:47.080Z,13.64
2022-11-09T17:18:09.821Z,13.64
2022-11-09T17:21:30.204Z,13.64
2022-11-09T17:24:52.042Z,13.57
2022-11-09T17:28:12.655Z,13.62
2022-11-09T17:31:33.914Z,13.61
2022-11-09T17:34:54.520Z,13.57
2022-11-09T17:38:14.944Z,13.54
2022-11-09T17:41:42.299Z,13.53
2022-11-09T17:45:03.482Z,13.46
2022-11-09T17:48:23.951Z,13.40
2022-11-09T17:51:44.609Z,13.31
2022-11-09T17:55:05.367Z,13.32
2022-11-09T17:58:27.153Z,13.28
2022-11-09T18:01:47.516Z,13.25
2022-11-09T18:05:08.644Z,13.25
2022-11-09T18:08:29.080Z,13.22
2022-11-09T18:11:49.654Z,13.17
2022-11-09T18:15:11.360Z,13.17
2022-11-09T18:18:31.997Z,13.21
2022-11-09T18:21:52.806Z,13.15
2022-11-09T18:25:13.370Z,13.14
2022-11-09T18:28:33.743Z,13.18
2022-11-09T18:31:55.144Z,13.15
2022-11-09T18:35:15.335Z,13.15
2022-11-09T18:38:36.165Z,13.04
2022-11-09T18:41:56.952Z,13.08
2022-11-09T18:45:17.447Z,13.08
2022-11-09T18:48:39.398Z,13.02
2022-11-09T18:51:59.838Z,13.00
2022-11-09T18:55:20.082Z,13.03
2022-11-09T18:58:40.581Z,13.00
2022-11-09T19:02:01.179Z,12.86
2022-11-09T19:05:22.627Z,12.97
2022-11-09T19:09:02.953Z,12.91
2022-11-09T19:12:24.119Z,12.90
2022-11-09T19:15:45.580Z,12.78
2022-11-09T19:19:06.527Z,12.84
2022-11-09T19:22:29.074Z,12.83
2022-11-09T19:25:50.189Z,12.80
2022-11-09T19:29:12.214Z,12.80
2022-11-09T19:32:32.414Z,12.78
2022-11-09T19:36:23.170Z,12.70
2022-11-09T19:39:36.127Z,12.61
2022-11-09T19:42:58.664Z,12.59
2022-11-09T19:46:18.894Z,12.54
2022-11-09T19:49:39.466Z,12.53
2022-11-09T19:52:59.960Z,12.42
2022-11-09T19:56:22.952Z,12.42
2022-11-09T19:59:43.287Z,12.31
2022-11-09T20:03:04.343Z,12.21
2022-11-09T20:06:25.911Z,12.26
2022-11-09T20:09:46.238Z,12.19
2022-11-09T20:13:08.075Z,12.13
2022-11-09T20:16:28.989Z,12.08
2022-11-09T20:19:49.392Z,12.00
2022-11-09T20:23:09.905Z,12.05
2022-11-09T20:26:30.028Z,12.08
2022-11-09T20:29:51.809Z,12.11
2022-11-09T20:33:11.964Z,11.92
2022-11-09T20:36:32.595Z,11.99
2022-11-09T20:39:53.004Z,11.91
2022-11-09T20:43:13.560Z,12.01
2022-11-09T20:46:36.802Z,11.87
2022-11-09T20:49:57.078Z,11.78
2022-11-09T20:53:17.348Z,11.85
2022-11-09T20:56:37.765Z,11.76
2022-11-09T20:59:58.248Z,11.76
2022-11-09T21:03:21.248Z,11.68
2022-11-09T21:06:41.843Z,11.72
2022-11-09T21:10:02.470Z,11.65
2022-11-09T21:13:23.256Z,11.61
2022-11-09T21:16:43.749Z,11.63
2022-11-09T21:20:06.191Z,11.72
2022-11-09T21:23:26.334Z,11.65
2022-11-09T21:27:05.458Z,11.60
2022-11-09T21:30:25.870Z,11.58
2022-11-09T21:33:46.171Z,11.46
2022-11-09T21:37:08.546Z,11.34
2022-11-09T21:40:28.722Z,11.19
2022-11-09T21:43:51.943Z,11.35
2022-11-09T21:47:12.663Z,11.38
2022-11-09T21:50:32.920Z,11.25
2022-11-09T21:53:54.492Z,11.43
2022-11-09T21:57:15.099Z,11.08
2022-11-09T22:00:35.598Z,11.12
2022-11-09T22:03:55.766Z,11.10
2022-11-09T22:07:16.088Z,11.07
2022-11-09T22:10:37.873Z,11.01
2022-11-09T22:14:16.605Z,10.87
2022-11-09T22:17:36.865Z,10.77
2022-11-09T22:20:57.218Z,10.70
2022-11-09T22:24:17.700Z,10.87
2022-11-09T22:27:39.578Z,10.75
2022-11-09T22:31:00.545Z,10.68
2022-11-09T22:34:20.979Z,10.66
2022-11-09T22:37:41.373Z,10.52
2022-11-09T22:41:02.307Z,10.39
2022-11-09T22:44:23.897Z,10.36
2022-11-09T22:47:44.533Z,10.34
2022-11-09T22:51:05.526Z,10.42
2022-11-09T22:54:25.991Z,10.33
2022-11-09T22:57:46.437Z,10.37
2022-11-09T23:01:11.466Z,10.30
2022-11-09T23:04:32.365Z,10.45
2022-11-09T23:07:54.764Z,10.80
2022-11-09T23:11:17.083Z,10.79
2022-11-09T23:14:55.979Z,10.68
2022-11-09T23:18:43.441Z,10.59
2022-11-09T23:22:03.940Z,10.63
2022-11-09T23:25:42.622Z,10.65
2022-11-09T23:29:02.848Z,10.56
2022-11-09T23:32:23.176Z,10.37
2022-11-09T23:35:44.792Z,10.59
2022-11-09T23:39:04.961Z,10.51
2022-11-09T23:42:25.431Z,10.44
2022-11-09T23:45:45.850Z,10.58
2022-11-09T23:49:05.863Z,10.53
2022-11-09T23:52:27.647Z,10.47
2022-11-09T23:55:48.096Z,10.19
2022-11-09T23:59:08.616Z,10.34
